createdAt,value
2017-09-12T00:00:30.666Z,12.09
2017-09-12T00:02:58.513Z,12.03
2017-09-12T00:05:26.218Z,11.98
2017-09-12T00:07:54.063Z,12.02
2017-09-12T00:10:21.852Z,11.97
2017-09-12T00:12:49.686Z,11.84
2017-09-12T00:15:17.385Z,11.88
2017-09-12T00:17:45.101Z,11.91
2017-09-12T00:20:12.868Z,11.90
2017-09-12T00:22:40.559Z,11.92
2017-09-12T00:25:08.286Z,11.91
2017-09-12T00:27:35.980Z,11.81
2017-09-12T00:30:03.753Z,11.88
2017-09-12T00:32:31.482Z,11.90
2017-09-12T00:34:59.186Z,11.89
2017-09-12T00:37:26.939Z,11.90
2017-09-12T00:39:54.723Z,11.78
2017-09-12T00:42:22.662Z,11.77
2017-09-12T00:44:50.409Z,11.78
2017-09-12T00:47:18.159Z,11.83
2017-09-12T00:49:45.959Z,11.83
2017-09-12T00:52:13.719Z,11.84
2017-09-12T00:54:41.469Z,11.87
2017-09-12T00:57:09.297Z,11.89
2017-09-12T00:59:37.135Z,11.88
2017-09-12T01:02:04.890Z,11.83
2017-09-12T01:04:32.746Z,11.75
2017-09-12T01:07:00.552Z,11.76
2017-09-12T01:09:28.272Z,11.68
2017-09-12T01:11:56.055Z,11.72
2017-09-12T01:14:23.833Z,11.73
2017-09-12T01:16:51.545Z,11.76
2017-09-12T01:19:19.317Z,11.81
2017-09-12T01:21:47.089Z,11.79
2017-09-12T01:24:14.927Z,11.71
2017-09-12T01:26:42.816Z,11.69
2017-09-12T01:29:10.549Z,11.63
2017-09-12T01:31:38.297Z,11.67
2017-09-12T01:34:06.132Z,11.50
2017-09-12T01:36:33.846Z,11.61
2017-09-12T01:39:01.656Z,11.67
2017-09-12T01:41:29.432Z,11.74
2017-09-12T01:43:57.252Z,11.76
2017-09-12T01:46:24.940Z,11.72
2017-09-12T01:48:52.723Z,11.69
2017-09-12T01:51:20.488Z,11.55
2017-09-12T01:53:48.298Z,11.58
2017-09-12T01:56:15.982Z,11.59
2017-09-12T01:58:43.704Z,11.56
2017-09-12T02:01:11.483Z,11.47
2017-09-12T02:03:39.238Z,11.54
2017-09-12T02:06:06.985Z,11.54
2017-09-12T02:08:34.806Z,11.50
2017-09-12T02:11:02.614Z,11.44
2017-09-12T02:13:30.300Z,11.41
2017-09-12T02:15:57.995Z,11.44
2017-09-12T02:18:25.737Z,11.37
2017-09-12T02:20:53.468Z,11.32
2017-09-12T02:23:21.250Z,11.33
2017-09-12T02:25:49.027Z,11.44
2017-09-12T02:28:16.745Z,11.39
2017-09-12T02:30:44.586Z,11.30
2017-09-12T02:33:12.305Z,11.27
2017-09-12T02:35:40.129Z,11.30
2017-09-12T02:38:07.878Z,11.30
2017-09-12T02:40:35.686Z,11.38
2017-09-12T02:43:03.398Z,11.38
2017-09-12T02:45:31.103Z,11.38
2017-09-12T02:47:58.857Z,11.37
2017-09-12T02:50:26.568Z,11.35
2017-09-12T02:52:54.282Z,11.33
2017-09-12T02:55:22.042Z,11.37
2017-09-12T02:57:49.935Z,11.32
2017-09-12T03:00:17.773Z,11.35
2017-09-12T03:02:45.518Z,11.36
2017-09-12T03:05:13.208Z,11.25
2017-09-12T03:07:40.932Z,11.30
2017-09-12T03:10:08.690Z,11.29
2017-09-12T03:12:36.543Z,11.28
2017-09-12T03:15:04.338Z,11.35
2017-09-12T03:17:32.056Z,11.31
2017-09-12T03:19:59.798Z,11.27
2017-09-12T03:22:27.549Z,11.24
2017-09-12T03:24:55.326Z,11.21
2017-09-12T03:27:23.114Z,11.33
2017-09-12T03:29:51.338Z,11.31
2017-09-12T03:32:19.079Z,11.32
2017-09-12T03:34:47.904Z,11.35
2017-09-12T03:37:15.686Z,11.31
2017-09-12T03:39:43.370Z,11.18
2017-09-12T03:42:11.168Z,11.24
2017-09-12T03:44:38.878Z,11.26
2017-09-12T03:47:06.566Z,11.26
2017-09-12T03:49:35.129Z,11.26
2017-09-12T03:52:03.340Z,11.24
2017-09-12T03:54:31.100Z,11.31
2017-09-12T03:56:58.928Z,11.28
2017-09-12T03:59:26.734Z,11.30
2017-09-12T04:01:54.578Z,11.25
2017-09-12T04:04:22.394Z,11.30
2017-09-12T04:06:50.687Z,11.30
2017-09-12T04:47:45.707Z,10.96
2017-09-12T04:50:14.519Z,10.95
2017-09-12T04:52:42.232Z,11.03
2017-09-12T04:55:09.975Z,11.07
2017-09-12T04:57:37.769Z,11.09
2017-09-12T05:00:05.634Z,11.12
2017-09-12T05:02:33.368Z,11.10
2017-09-12T05:05:01.505Z,11.13
2017-09-12T05:07:29.310Z,11.17
2017-09-12T05:09:57.806Z,11.24
2017-09-12T05:12:25.572Z,11.19
2017-09-12T05:14:53.365Z,11.12
2017-09-12T05:17:21.076Z,11.12
2017-09-12T05:19:48.909Z,11.11
2017-09-12T05:22:16.604Z,11.14
2017-09-12T05:24:44.382Z,11.14
2017-09-12T05:27:12.996Z,11.16
2017-09-12T05:29:40.728Z,11.19
2017-09-12T05:32:08.517Z,11.15
2017-09-12T05:34:36.281Z,11.17
2017-09-12T05:37:04.117Z,11.21
2017-09-12T05:39:32.088Z,11.27
2017-09-12T05:41:59.799Z,11.24
2017-09-12T05:44:27.521Z,11.24
2017-09-12T05:46:55.272Z,11.20
2017-09-12T05:49:23.070Z,11.25
2017-09-12T05:51:50.841Z,11.33
2017-09-12T05:54:18.630Z,11.29
2017-09-12T05:56:46.472Z,11.20
2017-09-12T05:59:14.197Z,11.24
2017-09-12T06:01:41.977Z,11.29
2017-09-12T06:04:09.686Z,11.31
2017-09-12T06:06:37.485Z,11.38
2017-09-12T06:09:05.551Z,11.39
2017-09-12T06:11:33.279Z,11.43
2017-09-12T06:14:00.986Z,11.46
2017-09-12T06:16:28.759Z,11.50
2017-09-12T06:18:56.470Z,11.59
2017-09-12T06:21:24.286Z,11.62
2017-09-12T06:23:51.974Z,11.64
2017-09-12T06:26:19.674Z,11.63
2017-09-12T06:28:47.461Z,11.71
2017-09-12T06:31:15.150Z,11.72
2017-09-12T06:33:42.886Z,11.80
2017-09-12T06:36:10.779Z,11.81
2017-09-12T06:38:38.478Z,11.82
2017-09-12T06:41:06.233Z,11.90
2017-09-12T06:43:34.003Z,12.09
2017-09-12T06:46:01.851Z,11.88
2017-09-12T06:48:29.726Z,11.85
2017-09-12T06:50:57.445Z,11.81
2017-09-12T06:53:25.168Z,11.91
2017-09-12T06:55:52.941Z,11.94
2017-09-12T06:58:20.732Z,12.00
2017-09-12T07:00:48.551Z,12.04
2017-09-12T07:03:16.355Z,12.16
2017-09-12T07:05:44.178Z,12.18
2017-09-12T07:08:12.409Z,12.33
2017-09-12T07:10:40.987Z,12.16
2017-09-12T07:13:09.403Z,12.12
2017-09-12T07:15:37.601Z,12.20
2017-09-12T07:18:05.292Z,12.22
2017-09-12T07:20:33.106Z,12.27
2017-09-12T07:23:00.924Z,12.33
2017-09-12T07:25:28.702Z,12.36
2017-09-12T07:27:56.892Z,12.43
2017-09-12T07:30:24.628Z,12.30
2017-09-12T07:32:52.395Z,12.43
2017-09-12T07:35:20.129Z,12.40
2017-09-12T07:37:47.876Z,12.48
2017-09-12T07:40:15.652Z,12.61
2017-09-12T07:42:43.411Z,12.62
2017-09-12T07:45:11.152Z,12.57
2017-09-12T07:47:38.920Z,12.63
2017-09-12T07:50:06.623Z,12.72
2017-09-12T07:52:34.408Z,12.79
2017-09-12T07:55:02.184Z,12.92
2017-09-12T07:57:30.078Z,12.76
2017-09-12T07:59:57.770Z,13.05
2017-09-12T08:02:25.546Z,12.83
2017-09-12T08:04:53.281Z,12.93
2017-09-12T08:07:21.135Z,12.96
2017-09-12T08:09:48.958Z,12.86
2017-09-12T08:12:16.695Z,12.83
2017-09-12T08:14:44.475Z,12.84
2017-09-12T08:17:12.253Z,12.91
2017-09-12T08:19:39.946Z,12.96
2017-09-12T08:22:08.788Z,13.03
2017-09-12T08:24:37.320Z,12.99
2017-09-12T08:27:05.034Z,13.04
2017-09-12T08:29:32.820Z,12.99
2017-09-12T08:32:00.635Z,12.94
2017-09-12T08:34:28.343Z,12.90
2017-09-12T08:36:56.106Z,12.88
2017-09-12T08:39:23.845Z,12.79
2017-09-12T08:41:51.673Z,12.77
2017-09-12T08:44:20.459Z,12.69
2017-09-12T08:46:48.194Z,12.68
2017-09-12T08:49:15.920Z,12.68
2017-09-12T08:51:44.218Z,12.79
2017-09-12T08:54:12.257Z,12.77
2017-09-12T08:56:40.052Z,12.78
2017-09-12T08:59:07.961Z,12.82
2017-09-12T09:01:35.715Z,12.85
2017-09-12T09:04:03.438Z,12.86
2017-09-12T09:06:31.229Z,12.74
2017-09-12T09:08:59.005Z,12.61
2017-09-12T09:11:26.789Z,12.53
2017-09-12T09:13:54.484Z,12.56
2017-09-12T09:16:22.257Z,12.63
2017-09-12T09:18:50.002Z,12.68
2017-09-12T09:21:17.704Z,12.74
2017-09-12T09:23:45.484Z,12.59
2017-09-12T09:26:13.161Z,12.66
2017-09-12T09:28:40.982Z,12.40
2017-09-12T09:31:08.718Z,12.37
2017-09-12T09:33:36.475Z,12.40
2017-09-12T09:36:05.282Z,12.29
2017-09-12T09:38:33.056Z,12.23
2017-09-12T09:41:00.847Z,12.12
2017-09-12T09:43:28.638Z,12.12
2017-09-12T09:45:57.359Z,12.09
2017-09-12T09:48:26.054Z,11.93
2017-09-12T09:50:53.869Z,12.04
2017-09-12T09:53:21.586Z,12.06
2017-09-12T09:55:49.340Z,12.11
2017-09-12T09:58:17.062Z,12.14
2017-09-12T10:00:44.782Z,12.03
2017-09-12T10:03:12.532Z,12.08
2017-09-12T10:05:40.314Z,12.04
2017-09-12T10:08:08.167Z,12.11
2017-09-12T10:10:35.872Z,12.19
2017-09-12T10:13:04.497Z,12.29
2017-09-12T10:15:32.238Z,12.18
2017-09-12T10:18:00.923Z,12.25
2017-09-12T10:20:29.438Z,12.17
2017-09-12T10:22:57.439Z,11.98
2017-09-12T10:25:25.548Z,11.99
2017-09-12T10:27:53.257Z,12.01
2017-09-12T10:30:20.974Z,11.93
2017-09-12T10:32:48.781Z,11.98
2017-09-12T10:35:16.576Z,12.03
2017-09-12T10:37:44.328Z,12.16
2017-09-12T10:40:12.136Z,12.32
2017-09-12T10:42:39.958Z,12.11
2017-09-12T10:45:07.827Z,12.05
2017-09-12T10:47:35.561Z,11.96
2017-09-12T10:50:03.321Z,12.08
2017-09-12T10:52:31.172Z,12.02
2017-09-12T10:54:58.969Z,12.20
2017-09-12T10:57:26.767Z,12.07
2017-09-12T10:59:54.753Z,12.00
2017-09-12T11:02:22.553Z,12.17
2017-09-12T11:04:50.312Z,12.15
2017-09-12T11:07:18.013Z,12.13
2017-09-12T11:09:45.868Z,12.06
2017-09-12T11:12:14.350Z,12.16
2017-09-12T11:14:42.069Z,12.25
2017-09-12T11:17:09.811Z,12.36
2017-09-12T11:19:37.547Z,12.40
2017-09-12T11:22:05.395Z,12.15
2017-09-12T11:24:33.159Z,12.09
2017-09-12T11:27:00.858Z,11.92
2017-09-12T11:29:28.575Z,12.18
2017-09-12T11:31:56.369Z,12.10
2017-09-12T11:34:24.140Z,12.36
2017-09-12T11:36:51.925Z,12.28
2017-09-12T11:39:19.761Z,12.28
2017-09-12T11:41:47.511Z,12.38
2017-09-12T11:44:16.012Z,12.34
2017-09-12T11:46:43.986Z,12.43
2017-09-12T11:49:11.920Z,12.50
2017-09-12T11:51:40.145Z,12.49
2017-09-12T11:54:09.346Z,12.43
2017-09-12T11:56:37.200Z,12.74
2017-09-12T11:59:05.242Z,12.56
2017-09-12T12:01:33.125Z,12.45
2017-09-12T12:04:01.106Z,12.52
2017-09-12T12:06:28.925Z,12.45
2017-09-12T12:08:57.496Z,12.28
2017-09-12T12:11:25.193Z,12.44
2017-09-12T12:13:53.144Z,12.64
2017-09-12T12:16:20.924Z,12.55
2017-09-12T12:18:48.789Z,12.63
2017-09-12T12:21:16.669Z,12.91
2017-09-12T12:23:45.028Z,12.86
2017-09-12T12:26:13.604Z,12.90
2017-09-12T12:28:41.611Z,12.97
2017-09-12T12:31:09.451Z,12.62
2017-09-12T12:33:37.589Z,12.53
2017-09-12T12:36:05.603Z,12.42
2017-09-12T12:38:33.492Z,12.38
2017-09-12T12:41:01.359Z,12.39
2017-09-12T12:43:29.428Z,12.53
2017-09-12T12:45:57.279Z,12.51
2017-09-12T12:48:25.169Z,12.27
2017-09-12T12:50:53.362Z,12.27
2017-09-12T12:53:21.388Z,12.29
2017-09-12T12:55:49.123Z,12.42
2017-09-12T12:58:17.177Z,12.36
2017-09-12T13:00:45.316Z,12.22
2017-09-12T13:03:13.452Z,12.43
2017-09-12T13:05:41.378Z,12.28
2017-09-12T13:08:09.529Z,12.18
2017-09-12T13:10:37.338Z,12.21
2017-09-12T13:13:05.396Z,12.25
2017-09-12T13:15:33.293Z,12.40
2017-09-12T13:18:01.167Z,12.02
2017-09-12T13:20:29.002Z,12.03
2017-09-12T13:22:57.740Z,12.08
2017-09-12T13:25:26.627Z,11.82
2017-09-12T13:27:54.496Z,11.80
2017-09-12T13:30:22.495Z,11.79
2017-09-12T13:32:50.505Z,11.86
2017-09-12T13:35:19.625Z,11.87
2017-09-12T13:37:47.882Z,11.83
2017-09-12T13:40:15.709Z,11.81
2017-09-12T13:42:43.494Z,11.77
2017-09-12T13:45:11.441Z,11.87
2017-09-12T13:47:39.160Z,11.68
2017-09-12T13:50:06.941Z,11.78
2017-09-12T13:52:35.071Z,11.85
2017-09-12T13:55:03.923Z,11.79
2017-09-12T13:57:31.766Z,11.81
2017-09-12T14:00:00.091Z,11.98
2017-09-12T14:02:30.666Z,12.07
2017-09-12T14:04:59.113Z,12.00
2017-09-12T14:07:30.186Z,12.07
2017-09-12T14:09:57.999Z,11.96
2017-09-12T14:12:26.445Z,11.89
2017-09-12T14:14:55.158Z,12.00
2017-09-12T14:17:24.728Z,12.09
2017-09-12T14:19:56.369Z,11.75
2017-09-12T14:22:25.282Z,11.74
2017-09-12T14:24:53.301Z,11.64
2017-09-12T14:27:21.449Z,11.64
2017-09-12T14:29:49.353Z,11.62
2017-09-12T14:32:17.230Z,11.84
2017-09-12T14:34:45.069Z,11.62
2017-09-12T14:37:14.489Z,11.69
2017-09-12T14:39:42.628Z,11.62
2017-09-12T14:42:10.680Z,11.73
2017-09-12T14:44:38.897Z,11.67
2017-09-12T14:47:06.854Z,11.69
2017-09-12T14:49:34.806Z,11.58
2017-09-12T14:52:02.667Z,11.32
2017-09-12T14:54:31.702Z,11.23
2017-09-12T14:56:59.818Z,11.38
2017-09-12T14:59:27.989Z,11.47
2017-09-12T15:01:55.734Z,11.46
2017-09-12T15:04:24.210Z,11.28
2017-09-12T15:06:52.136Z,11.45
2017-09-12T15:09:21.327Z,11.28
2017-09-12T15:11:49.190Z,11.37
2017-09-12T15:14:17.085Z,11.37
2017-09-12T15:16:45.298Z,11.41
2017-09-12T15:19:14.132Z,11.42
2017-09-12T15:21:45.703Z,11.33
2017-09-12T15:24:13.889Z,11.28
2017-09-12T15:26:41.761Z,11.32
2017-09-12T15:29:09.685Z,11.37
2017-09-12T15:31:37.751Z,11.22
2017-09-12T15:34:09.079Z,11.05
2017-09-12T15:36:39.090Z,11.04
2017-09-12T15:39:07.175Z,11.11
2017-09-12T15:41:36.022Z,11.13
2017-09-12T15:44:03.761Z,11.11
2017-09-12T15:46:32.501Z,11.09
2017-09-12T15:49:01.588Z,11.27
2017-09-12T15:51:29.438Z,11.26
2017-09-12T15:53:57.367Z,11.28
2017-09-12T15:56:25.925Z,11.32
2017-09-12T15:58:53.762Z,11.34
2017-09-12T16:01:21.568Z,11.21
2017-09-12T16:03:50.177Z,11.18
2017-09-12T16:06:18.697Z,11.15
2017-09-12T16:08:48.553Z,11.10
2017-09-12T16:11:17.257Z,11.20
2017-09-12T16:13:45.062Z,11.15
2017-09-12T16:16:13.371Z,11.19
2017-09-12T16:18:41.447Z,11.17
2017-09-12T16:21:09.182Z,11.21
2017-09-12T16:23:37.469Z,11.23
2017-09-12T16:26:05.206Z,11.19
2017-09-12T16:28:32.992Z,11.15
2017-09-12T16:31:01.165Z,11.19
2017-09-12T16:33:28.968Z,11.23
2017-09-12T16:35:56.795Z,11.18
2017-09-12T16:38:24.687Z,11.20
2017-09-12T16:40:52.453Z,11.15
2017-09-12T16:43:20.244Z,11.09
2017-09-12T16:45:48.438Z,11.05
2017-09-12T16:48:16.175Z,11.15
2017-09-12T16:50:44.410Z,11.05
2017-09-12T16:53:12.600Z,11.12
2017-09-12T16:55:40.615Z,11.10
2017-09-12T16:58:08.460Z,11.12
2017-09-12T17:00:36.224Z,11.11
2017-09-12T17:03:04.023Z,11.04
2017-09-12T17:05:32.031Z,11.20
2017-09-12T17:07:59.799Z,11.07
2017-09-12T17:10:27.536Z,10.89
2017-09-12T17:12:56.233Z,11.01
2017-09-12T17:15:24.908Z,10.96
2017-09-12T17:17:52.619Z,10.84
2017-09-12T17:20:20.371Z,10.79
2017-09-12T17:22:48.095Z,10.82
2017-09-12T17:25:16.831Z,10.80
2017-09-12T17:27:44.553Z,10.81
2017-09-12T17:30:12.350Z,10.73
2017-09-12T17:32:40.493Z,10.78
2017-09-12T17:35:08.442Z,10.74
2017-09-12T17:37:37.143Z,10.72
2017-09-12T17:40:05.007Z,10.73
2017-09-12T17:42:32.792Z,10.68
2017-09-12T17:45:00.826Z,10.70
2017-09-12T17:47:29.903Z,10.62
2017-09-12T17:49:59.290Z,10.67
2017-09-12T17:52:27.071Z,10.70
2017-09-12T17:54:55.893Z,10.64
2017-09-12T17:57:24.777Z,10.62
2017-09-12T17:59:53.411Z,10.64
2017-09-12T18:02:21.223Z,10.66
2017-09-12T18:04:49.463Z,10.67
2017-09-12T18:07:18.563Z,10.69
2017-09-12T18:09:46.391Z,10.66
2017-09-12T18:12:14.897Z,10.67
2017-09-12T18:14:43.125Z,10.70
2017-09-12T18:17:12.220Z,10.58
2017-09-12T18:19:40.046Z,10.54
2017-09-12T18:22:08.166Z,10.47
2017-09-12T18:24:36.117Z,10.54
2017-09-12T18:27:04.750Z,10.46
2017-09-12T18:29:32.589Z,10.49
2017-09-12T18:32:00.673Z,10.38
2017-09-12T18:34:29.760Z,10.37
2017-09-12T18:36:57.583Z,10.44
2017-09-12T18:39:25.847Z,10.35
2017-09-12T18:41:56.290Z,10.37
2017-09-12T18:44:24.777Z,10.38
2017-09-12T18:46:52.766Z,10.33
2017-09-12T18:49:20.880Z,10.38
2017-09-12T18:51:49.008Z,10.39
2017-09-12T18:54:16.846Z,10.44
2017-09-12T18:56:45.470Z,10.47
2017-09-12T18:59:13.948Z,10.47
2017-09-12T19:01:42.103Z,10.25
2017-09-12T19:04:09.967Z,10.24
2017-09-12T19:06:38.400Z,10.33
2017-09-12T19:09:06.552Z,10.34
2017-09-12T19:11:34.387Z,10.34
2017-09-12T19:14:03.142Z,10.37
2017-09-12T19:16:31.065Z,10.44
2017-09-12T19:18:59.023Z,10.42
2017-09-12T19:21:27.215Z,10.36
2017-09-12T19:23:55.196Z,10.45
2017-09-12T19:26:24.612Z,10.28
2017-09-12T19:28:52.620Z,10.25
2017-09-12T19:31:21.698Z,10.27
2017-09-12T19:33:49.521Z,10.21
2017-09-12T19:36:17.375Z,10.18
2017-09-12T19:38:45.656Z,10.20
2017-09-12T19:41:13.513Z,10.23
2017-09-12T19:43:41.724Z,10.24
2017-09-12T19:46:09.638Z,10.25
2017-09-12T19:48:38.143Z,10.29
2017-09-12T19:51:06.169Z,10.26
2017-09-12T19:53:34.040Z,10.26
2017-09-12T19:56:07.838Z,10.23
2017-09-12T19:58:35.690Z,10.25
2017-09-12T20:01:04.459Z,10.24
2017-09-12T20:03:32.870Z,10.19
2017-09-12T20:06:03.284Z,10.17
2017-09-12T20:08:31.914Z,10.18
2017-09-12T20:10:59.840Z,10.24
2017-09-12T20:13:27.646Z,10.31
2017-09-12T20:15:55.424Z,10.33
2017-09-12T20:18:23.310Z,10.29
2017-09-12T20:20:51.123Z,10.31
2017-09-12T20:23:18.889Z,10.34
2017-09-12T20:25:46.645Z,10.36
2017-09-12T20:28:14.365Z,10.35
2017-09-12T20:30:42.101Z,10.35
2017-09-12T20:33:10.070Z,10.27
2017-09-12T20:35:37.829Z,10.31
2017-09-12T20:38:05.624Z,10.29
2017-09-12T20:40:33.459Z,10.35
2017-09-12T20:43:01.750Z,10.40
2017-09-12T20:45:29.482Z,10.25
2017-09-12T20:47:57.337Z,10.23
2017-09-12T20:50:25.097Z,10.33
2017-09-12T20:52:52.938Z,10.49
2017-09-12T20:55:20.732Z,10.36
2017-09-12T20:57:48.577Z,10.37
2017-09-12T21:00:16.488Z,10.27
2017-09-12T21:02:44.402Z,10.27
2017-09-12T21:05:12.604Z,10.21
2017-09-12T21:07:40.511Z,10.14
2017-09-12T21:10:08.921Z,10.14
2017-09-12T21:12:36.717Z,10.08
2017-09-12T21:15:04.577Z,10.03
2017-09-12T21:17:32.457Z,10.03
2017-09-12T21:20:00.157Z,10.01
2017-09-12T21:22:28.008Z,10.04
2017-09-12T21:24:56.353Z,10.10
2017-09-12T21:27:24.126Z,10.24
2017-09-12T21:29:51.839Z,10.45
2017-09-12T21:32:19.634Z,10.36
2017-09-12T21:34:47.428Z,10.21
2017-09-12T21:37:15.186Z,10.18
2017-09-12T21:39:43.022Z,10.16
2017-09-12T21:42:10.865Z,10.14
2017-09-12T21:44:38.702Z,10.16
2017-09-12T21:47:06.489Z,10.15
2017-09-12T21:49:34.333Z,10.20
2017-09-12T21:52:02.049Z,10.15
2017-09-12T21:54:29.885Z,10.13
2017-09-12T21:56:57.661Z,10.16
2017-09-12T21:59:25.544Z,10.15
2017-09-12T22:01:53.346Z,10.18
2017-09-12T22:04:21.109Z,10.07
2017-09-12T22:06:48.921Z,10.08
2017-09-12T22:09:16.638Z,10.06
2017-09-12T22:11:44.412Z,10.06
2017-09-12T22:14:12.110Z,10.12
2017-09-12T22:16:40.049Z,10.13
2017-09-12T22:19:07.870Z,10.05
2017-09-12T22:21:35.640Z,10.05
2017-09-12T22:24:03.482Z,10.04
2017-09-12T22:26:31.204Z,9.96
2017-09-12T22:28:58.964Z,9.95
2017-09-12T22:31:26.754Z,10.02
2017-09-12T22:33:54.483Z,10.09
2017-09-12T22:36:22.379Z,10.12
2017-09-12T22:38:50.091Z,10.12
2017-09-12T22:41:17.791Z,10.12
2017-09-12T22:43:46.532Z,10.06
2017-09-12T22:46:14.254Z,10.02
2017-09-12T22:48:42.007Z,10.04
2017-09-12T22:51:09.822Z,9.97
2017-09-12T22:53:37.512Z,9.97
2017-09-12T22:56:05.241Z,9.90
2017-09-12T22:58:33.030Z,9.92
2017-09-12T23:01:00.758Z,9.90
2017-09-12T23:03:28.550Z,9.90
2017-09-12T23:05:56.264Z,10.00
2017-09-12T23:08:24.007Z,10.16
2017-09-12T23:10:51.725Z,10.10
2017-09-12T23:13:19.501Z,10.05
2017-09-12T23:15:48.065Z,9.99
2017-09-12T23:18:15.837Z,9.98
2017-09-12T23:20:43.642Z,9.94
2017-09-12T23:23:11.438Z,9.92
2017-09-12T23:25:39.142Z,9.93
2017-09-12T23:28:06.868Z,9.97
2017-09-12T23:30:34.615Z,9.93
2017-09-12T23:33:02.388Z,9.95
2017-09-12T23:35:30.160Z,9.96
2017-09-12T23:37:57.931Z,9.97
2017-09-12T23:40:25.700Z,9.99
2017-09-12T23:42:53.450Z,9.98
2017-09-12T23:45:21.249Z,9.90
2017-09-12T23:47:48.942Z,9.91
2017-09-12T23:50:16.696Z,9.98
2017-09-12T23:52:44.373Z,9.92
2017-09-12T23:55:12.092Z,9.91
2017-09-12T23:57:39.844Z,9.87
